Creighton, South Dakota
Current Conditions -  °F | °C
As of 3:55 AM on Wednesday 26 Nov 2014 (Local Time) from KPHP Reporting Station
Overcast Overcast  
Wind Chill: 16°   Ceiling: 1700
Heat Index: 25°   Visibility: 10mi
Dew Point: 19°   Wind: 8mph
Humidity: 78%   Direction: 10°N
Pressure: 30.21"   Gusts: NA
Location:  44.29°N, 102.14°W
Report Text: KPHP 261055Z AUTO 01007KT 10SM OVC017 M04/M07 A3021 RMK AO2 SLP249 T10391072
Loading
Personal Weather Stations






























Interactive Weather Map New forecast layout! Learn more

10-Day Weather Forecast

Advertisements
Track Severe Weather on mobile